Time;durP1;ratioP1;P1;durP2;ratioP2;P2;SDS_P1;SDS_P2;PMS_P1;PMS_P2;Temp;Humidity;BMP_temperature;BMP_pressure;BME280_temperature;BME280_humidity;BME280_pressure;Samples;Min_cycle;Max_cycle;Signal;HPM_P1;HPM_P2
2022/10/17 00:01:11;;;;;;;0.50;0.50;;;13.60;99.90;;;;;;4994173;28;20044;-81
2022/10/17 00:03:39;;;;;;;0.50;0.50;;;13.60;99.90;;;;;;4975800;28;20056;-81
2022/10/17 00:06:07;;;;;;;0.50;0.50;;;13.60;99.90;;;;;;4990932;28;20575;-81
2022/10/17 00:08:33;;;;;;;0.50;0.50;;;13.60;99.90;;;;;;4961623;28;20542;-81
2022/10/17 00:11:20;;;;;;;0.50;0.50;;;13.60;99.90;;;;;;4983736;28;20151;-81
2022/10/17 00:13:48;;;;;;;0.50;0.50;;;13.50;99.90;;;;;;4974084;28;20172;-82
2022/10/17 00:16:21;;;;;;;0.50;0.50;;;13.50;99.90;;;;;;4975761;28;20381;-81
2022/10/17 00:18:47;;;;;;;0.50;0.50;;;13.50;99.90;;;;;;4997791;28;20380;-82
2022/10/17 00:21:18;;;;;;;0.40;0.40;;;13.50;99.90;;;;;;4979200;28;20056;-81
2022/10/17 00:23:44;;;;;;;0.50;0.50;;;13.50;99.90;;;;;;4974695;28;20796;-81
2022/10/17 00:26:10;;;;;;;0.50;0.50;;;13.40;99.90;;;;;;4980516;28;20044;-82
2022/10/17 00:28:36;;;;;;;0.50;0.50;;;13.50;99.90;;;;;;4981655;28;20052;-81
2022/10/17 00:31:04;;;;;;;0.50;0.50;;;13.40;99.90;;;;;;4990434;28;20679;-81
2022/10/17 00:33:30;;;;;;;0.60;0.60;;;13.50;99.90;;;;;;4969042;28;20509;-81
2022/10/17 00:36:11;;;;;;;0.50;0.50;;;13.50;99.90;;;;;;4994146;28;21110;-81
2022/10/17 00:38:37;;;;;;;0.60;0.60;;;13.60;99.90;;;;;;4979074;28;20047;-81
2022/10/17 00:41:04;;;;;;;0.50;0.50;;;13.60;99.90;;;;;;4989270;28;20052;-82
2022/10/17 00:43:48;;;;;;;0.50;0.50;;;13.70;99.90;;;;;;4994414;28;20047;-81
2022/10/17 00:46:14;;;;;;;0.50;0.50;;;13.70;99.90;;;;;;4976962;28;20345;-81
2022/10/17 00:48:40;;;;;;;0.50;0.50;;;13.70;99.90;;;;;;4993174;28;20052;-83
2022/10/17 00:51:06;;;;;;;0.50;0.50;;;13.70;99.90;;;;;;4969076;28;20051;-84
2022/10/17 00:53:34;;;;;;;0.50;0.50;;;13.80;99.90;;;;;;4962667;28;20043;-83
2022/10/17 00:56:06;;;;;;;0.50;0.50;;;13.80;99.90;;;;;;4977687;28;20062;-81
2022/10/17 00:58:32;;;;;;;0.50;0.50;;;13.80;99.90;;;;;;4975743;28;20047;-82
2022/10/17 01:00:58;;;;;;;0.50;0.50;;;13.80;99.90;;;;;;4980220;28;20063;-82
2022/10/17 01:03:24;;;;;;;0.50;0.50;;;13.80;99.90;;;;;;4993222;28;21429;-82
2022/10/17 01:05:50;;;;;;;0.50;0.50;;;13.80;99.90;;;;;;4963873;28;20052;-81
2022/10/17 01:08:16;;;;;;;0.50;0.50;;;13.80;99.90;;;;;;4972944;28;20110;-81
2022/10/17 01:11:04;;;;;;;0.50;0.50;;;13.70;99.90;;;;;;4973930;28;20051;-82
2022/10/17 01:13:50;;;;;;;0.50;0.50;;;13.60;99.90;;;;;;4971659;28;20106;-82
2022/10/17 01:16:25;;;;;;;0.50;0.50;;;13.70;99.90;;;;;;4982864;28;20983;-83
2022/10/17 01:19:13;;;;;;;0.50;0.50;;;13.60;99.90;;;;;;4978566;28;20048;-81
2022/10/17 01:21:54;;;;;;;0.50;0.50;;;13.60;99.90;;;;;;4987411;28;20482;-81
2022/10/17 01:24:40;;;;;;;0.50;0.50;;;13.50;99.90;;;;;;4978423;28;20059;-81
2022/10/17 01:27:41;;;;;;;0.50;0.50;;;13.50;99.90;;;;;;4971740;28;20047;-82
2022/10/17 01:30:22;;;;;;;0.50;0.50;;;13.50;99.90;;;;;;4978251;28;20089;-81
2022/10/17 01:33:02;;;;;;;0.50;0.50;;;13.50;99.90;;;;;;4974254;28;20497;-81
2022/10/17 01:35:44;;;;;;;0.50;0.50;;;13.50;99.90;;;;;;4997275;28;20833;-81
2022/10/17 01:38:15;;;;;;;0.60;0.60;;;13.50;99.90;;;;;;4992055;28;20047;-80
2022/10/17 01:41:09;;;;;;;0.50;0.50;;;13.50;99.90;;;;;;4974206;28;20166;-81
2022/10/17 01:43:46;;;;;;;0.50;0.50;;;13.50;99.90;;;;;;4919712;28;20433;-81
2022/10/17 01:46:37;;;;;;;0.50;0.50;;;13.40;99.90;;;;;;4961626;28;20185;-81
2022/10/17 01:49:05;;;;;;;0.57;0.57;;;13.40;99.90;;;;;;4973505;28;20048;-81
2022/10/17 01:52:02;;;;;;;0.50;0.50;;;13.50;99.90;;;;;;4972718;28;20410;-81
2022/10/17 01:54:39;;;;;;;0.50;0.50;;;13.40;99.90;;;;;;4971916;28;20058;-81
2022/10/17 01:57:13;;;;;;;0.50;0.50;;;13.40;99.90;;;;;;4996062;28;20541;-82
2022/10/17 01:59:43;;;;;;;0.50;0.50;;;13.50;99.90;;;;;;4979139;28;20054;-82
2022/10/17 02:02:10;;;;;;;0.50;0.50;;;13.40;99.90;;;;;;4975115;28;20200;-82
2022/10/17 02:04:36;;;;;;;0.50;0.50;;;13.40;99.90;;;;;;4991296;28;20052;-81
2022/10/17 02:07:11;;;;;;;0.50;0.50;;;13.40;99.90;;;;;;4969465;28;20858;-83
2022/10/17 02:09:37;;;;;;;0.50;0.50;;;13.30;99.90;;;;;;4971809;28;20048;-81
2022/10/17 02:12:06;;;;;;;0.50;0.50;;;13.40;99.90;;;;;;4959141;28;20102;-83
2022/10/17 02:14:40;;;;;;;0.50;0.50;;;13.30;99.90;;;;;;4975207;28;20535;-80
2022/10/17 02:17:29;;;;;;;0.50;0.50;;;13.40;99.90;;;;;;4974699;28;20593;-82
2022/10/17 02:20:06;;;;;;;0.50;0.50;;;13.40;99.90;;;;;;4959405;28;20720;-80
2022/10/17 02:22:47;;;;;;;0.50;0.50;;;13.40;99.90;;;;;;4959473;28;20550;-80
2022/10/17 02:25:14;;;;;;;0.50;0.50;;;13.30;99.90;;;;;;4980169;28;20085;-82
2022/10/17 02:27:54;;;;;;;0.50;0.50;;;13.40;99.90;;;;;;4978313;28;20379;-82
2022/10/17 02:30:40;;;;;;;0.50;0.50;;;13.40;99.90;;;;;;4996482;28;20048;-82
2022/10/17 02:33:15;;;;;;;0.50;0.50;;;13.30;99.90;;;;;;4989703;28;20400;-82
2022/10/17 02:35:48;;;;;;;0.50;0.50;;;13.30;99.90;;;;;;4980378;28;20552;-81
2022/10/17 02:38:18;;;;;;;0.50;0.50;;;13.30;99.90;;;;;;4979426;28;20054;-82
2022/10/17 02:40:45;;;;;;;0.50;0.50;;;13.30;99.90;;;;;;4994834;28;20067;-81
2022/10/17 02:43:13;;;;;;;0.50;0.50;;;13.40;99.90;;;;;;4961715;28;20104;-82
2022/10/17 02:45:39;;;;;;;0.50;0.50;;;13.30;99.90;;;;;;4977158;28;20854;-82
2022/10/17 02:48:18;;;;;;;0.50;0.50;;;13.30;99.90;;;;;;4958913;28;20253;-81
2022/10/17 02:51:08;;;;;;;0.50;0.50;;;13.40;99.90;;;;;;4986103;28;20047;-81
2022/10/17 02:53:49;;;;;;;0.50;0.50;;;13.40;99.90;;;;;;4978292;28;20140;-82
2022/10/17 02:56:21;;;;;;;0.50;0.50;;;13.40;99.90;;;;;;4983358;28;20139;-81
2022/10/17 02:58:55;;;;;;;0.50;0.50;;;13.40;99.90;;;;;;4945787;28;20211;-82
2022/10/17 03:01:21;;;;;;;0.50;0.50;;;13.50;99.90;;;;;;4994751;28;20066;-81
2022/10/17 03:03:50;;;;;;;0.50;0.50;;;13.40;99.90;;;;;;5001633;28;20125;-81
2022/10/17 03:06:15;;;;;;;0.50;0.50;;;13.40;99.90;;;;;;4974082;28;20457;-81
2022/10/17 03:08:41;;;;;;;0.50;0.50;;;13.50;99.90;;;;;;4958702;28;20040;-81
2022/10/17 03:11:07;;;;;;;0.50;0.50;;;13.40;99.90;;;;;;4980321;28;20051;-81
2022/10/17 03:13:33;;;;;;;0.50;0.50;;;13.40;99.90;;;;;;4980832;28;20076;-81
2022/10/17 03:15:59;;;;;;;0.50;0.50;;;13.40;99.90;;;;;;4979498;28;20405;-82
2022/10/17 03:18:32;;;;;;;0.50;0.50;;;13.40;99.90;;;;;;4962625;28;20048;-81
2022/10/17 03:20:59;;;;;;;0.50;0.50;;;13.40;99.90;;;;;;4996292;28;20837;-81
2022/10/17 03:23:25;;;;;;;0.50;0.50;;;13.50;99.90;;;;;;4968089;28;20117;-81
2022/10/17 03:25:50;;;;;;;0.50;0.50;;;13.40;99.90;;;;;;4974897;28;20801;-81
2022/10/17 03:28:16;;;;;;;0.50;0.50;;;13.40;99.90;;;;;;4973921;28;20056;-82
2022/10/17 03:30:42;;;;;;;0.50;0.50;;;13.40;99.90;;;;;;4976051;28;20401;-82
2022/10/17 03:33:08;;;;;;;0.50;0.50;;;13.40;99.90;;;;;;4979877;28;20047;-81
2022/10/17 03:35:36;;;;;;;0.50;0.50;;;13.50;99.90;;;;;;4977422;28;20047;-81
2022/10/17 03:38:02;;;;;;;0.50;0.50;;;13.40;99.90;;;;;;4977733;28;20146;-82
2022/10/17 03:40:28;;;;;;;0.50;0.50;;;13.40;99.90;;;;;;4977740;28;20044;-82
2022/10/17 03:42:54;;;;;;;0.50;0.50;;;13.40;99.90;;;;;;4974610;28;20063;-81
2022/10/17 03:45:20;;;;;;;0.50;0.50;;;13.40;99.90;;;;;;4978426;28;20403;-82
2022/10/17 03:47:45;;;;;;;0.50;0.50;;;13.40;99.90;;;;;;4975221;28;20044;-82
2022/10/17 03:50:11;;;;;;;0.50;0.50;;;13.40;99.90;;;;;;4972456;28;20886;-81
2022/10/17 03:52:37;;;;;;;0.50;0.50;;;13.40;99.90;;;;;;4996530;28;20048;-82
2022/10/17 03:55:03;;;;;;;0.57;0.57;;;13.30;99.90;;;;;;4980554;28;20643;-82
2022/10/17 03:57:29;;;;;;;0.50;0.50;;;13.30;99.90;;;;;;4964992;28;20062;-81
2022/10/17 03:59:54;;;;;;;0.50;0.50;;;13.30;99.90;;;;;;4965436;28;20039;-82
2022/10/17 04:02:20;;;;;;;0.57;0.57;;;13.30;99.90;;;;;;4980495;28;20416;-82
2022/10/17 04:04:46;;;;;;;0.50;0.50;;;13.30;99.90;;;;;;4988710;28;20047;-82
2022/10/17 04:07:12;;;;;;;0.55;0.55;;;13.30;99.90;;;;;;4977462;28;20365;-82
2022/10/17 04:09:38;;;;;;;0.50;0.50;;;13.30;99.90;;;;;;4987571;28;20179;-81
2022/10/17 04:12:04;;;;;;;0.50;0.50;;;13.30;99.90;;;;;;4976109;28;20048;-81
2022/10/17 04:14:30;;;;;;;0.50;0.50;;;13.30;99.90;;;;;;4977172;28;20068;-81
2022/10/17 04:16:56;;;;;;;0.50;0.50;;;13.20;99.90;;;;;;4980527;28;20454;-82
2022/10/17 04:19:22;;;;;;;0.50;0.50;;;13.30;99.90;;;;;;4981460;28;20135;-81
2022/10/17 04:21:48;;;;;;;0.50;0.50;;;13.30;99.90;;;;;;4976584;28;20105;-81
2022/10/17 04:24:13;;;;;;;0.50;0.50;;;13.20;99.90;;;;;;4964207;28;20054;-82
2022/10/17 04:26:39;;;;;;;0.50;0.50;;;13.20;99.90;;;;;;4955573;28;20534;-82
2022/10/17 04:29:05;;;;;;;0.50;0.50;;;13.20;99.90;;;;;;4959078;28;20055;-82
2022/10/17 04:31:31;;;;;;;0.50;0.50;;;13.20;99.90;;;;;;4977575;28;20059;-81
2022/10/17 04:33:56;;;;;;;0.50;0.50;;;13.20;99.90;;;;;;4975937;28;20047;-81
2022/10/17 04:36:22;;;;;;;0.50;0.50;;;13.30;99.90;;;;;;4972257;28;20555;-81
2022/10/17 04:38:48;;;;;;;0.50;0.50;;;13.20;99.90;;;;;;4953886;28;20771;-81
2022/10/17 04:41:16;;;;;;;0.50;0.50;;;13.20;99.90;;;;;;4979632;28;21021;-82
2022/10/17 04:43:42;;;;;;;0.50;0.50;;;13.20;99.90;;;;;;4973939;28;20040;-82
2022/10/17 04:46:10;;;;;;;0.50;0.50;;;13.30;99.90;;;;;;4959008;28;20743;-82
2022/10/17 04:48:37;;;;;;;0.50;0.50;;;13.20;99.90;;;;;;4977047;28;21010;-83
2022/10/17 04:51:06;;;;;;;0.50;0.50;;;13.20;99.90;;;;;;4974247;28;20083;-81
2022/10/17 04:53:34;;;;;;;0.50;0.50;;;13.20;99.90;;;;;;4992620;28;20047;-82
2022/10/17 04:56:01;;;;;;;0.50;0.50;;;13.30;99.90;;;;;;4976279;28;20479;-83
2022/10/17 04:58:30;;;;;;;0.50;0.50;;;13.30;99.90;;;;;;4956265;28;20660;-82
2022/10/17 05:00:56;;;;;;;0.50;0.50;;;13.20;99.90;;;;;;4973119;28;20127;-83
2022/10/17 05:03:21;;;;;;;0.60;0.60;;;13.10;99.90;;;;;;4954431;28;20757;-82
2022/10/17 05:05:47;;;;;;;0.50;0.50;;;13.30;99.90;;;;;;4973969;28;20075;-82
2022/10/17 05:08:13;;;;;;;0.50;0.50;;;13.20;99.90;;;;;;4975048;28;20485;-83
2022/10/17 05:10:42;;;;;;;0.50;0.50;;;13.20;99.90;;;;;;4970937;28;20044;-82
2022/10/17 05:13:09;;;;;;;0.50;0.50;;;13.30;99.90;;;;;;4964216;28;20056;-82
2022/10/17 05:15:36;;;;;;;0.50;0.50;;;13.30;99.90;;;;;;4966828;28;20077;-83
2022/10/17 05:18:03;;;;;;;0.50;0.50;;;13.30;99.90;;;;;;4978232;28;20992;-83
2022/10/17 05:20:29;;;;;;;0.50;0.50;;;13.40;99.90;;;;;;4974214;28;20080;-83
2022/10/17 05:22:57;;;;;;;0.50;0.50;;;13.50;99.90;;;;;;4972088;28;20048;-82
2022/10/17 05:25:23;;;;;;;0.50;0.50;;;13.60;99.90;;;;;;4962450;28;20051;-82
2022/10/17 05:27:50;;;;;;;0.50;0.50;;;13.60;99.90;;;;;;4985787;28;20437;-83
2022/10/17 05:30:16;;;;;;;0.50;0.50;;;13.60;99.90;;;;;;4976437;28;20155;-82
2022/10/17 05:32:41;;;;;;;0.50;0.50;;;13.70;99.90;;;;;;4976374;28;20244;-82
2022/10/17 05:35:07;;;;;;;0.50;0.50;;;13.70;99.90;;;;;;4977610;28;20105;-85
2022/10/17 05:37:33;;;;;;;0.50;0.50;;;13.70;99.90;;;;;;4949802;28;20466;-83
2022/10/17 05:39:59;;;;;;;0.45;0.45;;;13.70;99.90;;;;;;4991652;28;20044;-82
2022/10/17 05:42:28;;;;;;;0.43;0.43;;;13.80;99.90;;;;;;4952271;28;20848;-82
2022/10/17 05:44:53;;;;;;;0.50;0.50;;;13.80;99.90;;;;;;4971482;28;20046;-82
2022/10/17 05:47:19;;;;;;;0.50;0.50;;;13.80;99.90;;;;;;4972397;28;20335;-85
2022/10/17 05:49:45;;;;;;;0.50;0.50;;;13.90;99.90;;;;;;4958506;28;20043;-82
2022/10/17 05:52:10;;;;;;;0.50;0.50;;;13.90;99.90;;;;;;4971276;28;20433;-82
2022/10/17 05:54:36;;;;;;;0.50;0.50;;;14.00;99.90;;;;;;4972302;28;20047;-82
2022/10/17 05:57:02;;;;;;;0.50;0.50;;;14.00;99.90;;;;;;4972791;28;20410;-82
2022/10/17 05:59:28;;;;;;;0.50;0.50;;;14.00;99.90;;;;;;4941452;28;20105;-84
2022/10/17 06:01:53;;;;;;;0.40;0.40;;;14.00;99.90;;;;;;4955757;28;20492;-83
2022/10/17 06:04:20;;;;;;;0.50;0.50;;;14.10;99.90;;;;;;4947880;28;20055;-83
2022/10/17 06:06:46;;;;;;;0.50;0.50;;;14.20;99.90;;;;;;4969783;28;20052;-83
2022/10/17 06:09:16;;;;;;;0.50;0.50;;;14.10;99.90;;;;;;4994061;28;20388;-83
2022/10/17 06:11:41;;;;;;;0.50;0.50;;;14.30;99.90;;;;;;4956462;28;20117;-83
2022/10/17 06:14:07;;;;;;;0.50;0.50;;;14.20;99.90;;;;;;4957417;28;20652;-83
2022/10/17 06:16:33;;;;;;;0.50;0.50;;;14.30;99.90;;;;;;4970811;28;20052;-83
2022/10/17 06:18:59;;;;;;;0.50;0.50;;;14.20;99.90;;;;;;4992646;28;20055;-83
2022/10/17 06:21:35;;;;;;;0.50;0.50;;;14.20;99.90;;;;;;4960937;28;20163;-82
2022/10/17 06:24:01;;;;;;;0.50;0.50;;;14.20;99.90;;;;;;4956250;28;20150;-84
2022/10/17 06:26:26;;;;;;;0.50;0.50;;;14.40;99.90;;;;;;4974004;28;20047;-86
2022/10/17 06:28:53;;;;;;;0.50;0.50;;;14.60;99.90;;;;;;4951570;28;20044;-82
2022/10/17 06:31:19;;;;;;;0.50;0.50;;;14.70;99.90;;;;;;4958406;28;20048;-84
2022/10/17 06:33:45;;;;;;;0.50;0.50;;;14.70;99.90;;;;;;4973556;28;20051;-87
2022/10/17 06:36:13;;;;;;;0.40;0.40;;;14.90;99.90;;;;;;4946340;28;20459;-83
2022/10/17 06:38:39;;;;;;;0.50;0.50;;;15.10;99.90;;;;;;4997296;28;20269;-83
2022/10/17 06:41:08;;;;;;;0.50;0.50;;;15.30;99.90;;;;;;4994542;28;20341;-83
2022/10/17 06:43:37;;;;;;;0.50;0.50;;;15.40;99.90;;;;;;4984368;28;20054;-84
2022/10/17 06:46:09;;;;;;;0.50;0.50;;;15.50;99.90;;;;;;4980912;28;20060;-88
2022/10/17 06:48:35;;;;;;;0.50;0.50;;;15.60;99.90;;;;;;4982641;28;20051;-84
2022/10/17 06:51:04;;;;;;;0.40;0.40;;;15.80;99.90;;;;;;4986325;28;20161;-82
2022/10/17 06:53:41;;;;;;;0.50;0.50;;;15.80;99.90;;;;;;4981968;28;20050;-86
2022/10/17 06:56:08;;;;;;;0.43;0.43;;;16.00;99.90;;;;;;4999774;28;20108;-85
2022/10/17 06:58:43;;;;;;;0.45;0.45;;;16.10;99.90;;;;;;4956320;28;20052;-85
2022/10/17 07:01:12;;;;;;;0.40;0.40;;;16.10;99.90;;;;;;4961812;28;20098;-82
2022/10/17 07:03:39;;;;;;;0.40;0.40;;;16.20;99.90;;;;;;4987162;28;20044;-83
2022/10/17 07:06:11;;;;;;;0.50;0.50;;;16.40;99.90;;;;;;4957650;28;20102;-84
2022/10/17 07:08:57;;;;;;;0.50;0.50;;;16.40;99.90;;;;;;5003778;28;20562;-87
2022/10/17 07:11:24;;;;;;;0.50;0.50;;;16.50;99.90;;;;;;4958794;28;20383;-85
2022/10/17 07:13:50;;;;;;;0.50;0.50;;;16.60;99.90;;;;;;4951462;28;20059;-85
2022/10/17 07:16:16;;;;;;;0.50;0.50;;;16.80;99.90;;;;;;4969015;28;20131;-82
2022/10/17 07:18:42;;;;;;;0.50;0.50;;;16.80;99.90;;;;;;4990614;28;20531;-86
2022/10/17 07:21:11;;;;;;;0.47;0.47;;;16.90;99.90;;;;;;4981967;28;20269;-84
2022/10/17 07:23:43;;;;;;;0.40;0.40;;;16.90;99.90;;;;;;4965231;28;20051;-88
2022/10/17 07:26:14;;;;;;;0.47;0.47;;;17.10;99.90;;;;;;4969512;28;20044;-89
2022/10/17 07:28:48;;;;;;;0.50;0.50;;;17.10;99.90;;;;;;4971625;28;20056;-88
2022/10/17 07:31:36;;;;;;;0.50;0.50;;;17.20;99.90;;;;;;4971000;28;20044;-88
2022/10/17 07:34:06;;;;;;;0.50;0.50;;;17.30;99.90;;;;;;4983466;28;20043;-88
2022/10/17 07:36:32;;;;;;;0.50;0.50;;;17.50;99.90;;;;;;5005327;28;20455;-85
2022/10/17 07:39:01;;;;;;;0.50;0.50;;;17.50;99.90;;;;;;4977524;28;20055;-84
2022/10/17 07:41:26;;;;;;;0.50;0.50;;;17.60;99.90;;;;;;4975708;28;20048;-84
2022/10/17 07:43:52;;;;;;;0.40;0.40;;;17.70;99.90;;;;;;4988403;28;20770;-86
2022/10/17 07:46:18;;;;;;;0.40;0.40;;;17.60;99.90;;;;;;4985474;28;20546;-85
2022/10/17 07:48:44;;;;;;;0.40;0.40;;;17.60;99.90;;;;;;4964041;28;20221;-85
2022/10/17 07:51:17;;;;;;;0.50;0.50;;;17.60;99.90;;;;;;4980884;28;20056;-85
2022/10/17 07:53:44;;;;;;;0.50;0.50;;;17.60;99.90;;;;;;4971224;28;20043;-83
2022/10/17 07:56:37;;;;;;;0.50;0.50;;;17.70;99.90;;;;;;4991592;28;20048;-85
2022/10/17 07:59:08;;;;;;;0.40;0.40;;;17.60;99.90;;;;;;4976993;28;20409;-89
2022/10/17 08:01:35;;;;;;;0.40;0.40;;;17.70;99.90;;;;;;4980236;28;20051;-82
2022/10/17 08:04:06;;;;;;;0.50;0.50;;;17.80;99.90;;;;;;4987788;28;20448;-86
2022/10/17 08:06:34;;;;;;;;;;;17.70;99.90;;;;;;4984935;28;20841;-84
2022/10/17 08:09:00;;;;;;;0.50;0.50;;;17.80;99.90;;;;;;4974493;28;19924;-82
2022/10/17 08:11:35;;;;;;;0.50;0.50;;;17.90;99.90;;;;;;4968802;28;20051;-86
2022/10/17 08:14:01;;;;;;;0.43;0.43;;;17.90;99.90;;;;;;4981203;28;20421;-84
2022/10/17 08:16:30;;;;;;;0.50;0.50;;;18.00;99.90;;;;;;5003751;28;20059;-86
2022/10/17 08:18:55;;;;;;;0.50;0.50;;;18.10;99.90;;;;;;4985002;28;20492;-85
2022/10/17 08:21:25;;;;;;;0.40;0.40;;;18.10;99.90;;;;;;4981513;28;20534;-87
2022/10/17 08:23:54;;;;;;;0.40;0.40;;;18.20;99.90;;;;;;5003884;28;20583;-82
2022/10/17 08:26:20;;;;;;;0.50;0.50;;;18.30;99.90;;;;;;4977347;28;20048;-81
2022/10/17 08:28:47;;;;;;;0.40;0.40;;;18.30;99.90;;;;;;5005581;28;20075;-84
2022/10/17 08:31:18;;;;;;;0.50;0.50;;;18.30;99.90;;;;;;4987710;28;20822;-84
2022/10/17 08:33:58;;;;;;;0.50;0.50;;;18.40;99.90;;;;;;5008711;28;20044;-84
2022/10/17 08:36:24;;;;;;;0.50;0.50;;;18.40;99.90;;;;;;5002421;28;20946;-83
2022/10/17 08:38:50;;;;;;;0.40;0.40;;;18.40;99.90;;;;;;4962248;28;20066;-84
2022/10/17 08:41:35;;;;;;;0.40;0.40;;;18.40;99.90;;;;;;4991681;28;20047;-90
2022/10/17 08:44:40;;;;;;;0.40;0.40;;;18.40;99.90;;;;;;4990568;28;20058;-83
2022/10/17 08:47:12;;;;;;;0.50;0.50;;;18.40;99.90;;;;;;4970221;28;20508;-82
2022/10/17 08:49:46;;;;;;;0.40;0.40;;;18.40;99.90;;;;;;5005464;28;20801;-84
2022/10/17 08:52:27;;;;;;;0.40;0.40;;;18.40;99.90;;;;;;5009734;28;20406;-86
2022/10/17 08:54:53;;;;;;;0.40;0.40;;;18.30;99.90;;;;;;4983033;28;20930;-85
2022/10/17 08:57:21;;;;;;;0.40;0.40;;;18.30;99.90;;;;;;4990505;28;20048;-86
2022/10/17 08:59:53;;;;;;;0.40;0.40;;;18.30;99.90;;;;;;4988806;28;20598;-84
2022/10/17 09:02:30;;;;;;;;;;;18.40;99.90;;;;;;4975599;28;20051;-83
2022/10/17 09:05:21;;;;;;;0.50;0.50;;;18.30;99.90;;;;;;4972116;28;20389;-84
2022/10/17 09:07:59;;;;;;;0.40;0.40;;;18.30;99.90;;;;;;4993503;28;20220;-86
2022/10/17 09:10:43;;;;;;;0.40;0.40;;;18.30;99.90;;;;;;4957897;28;20401;-82
2022/10/17 09:13:30;;;;;;;0.40;0.40;;;18.30;99.90;;;;;;5009721;28;20563;-84
2022/10/17 09:16:16;;;;;;;0.40;0.40;;;18.20;99.90;;;;;;5014131;28;20109;-86
2022/10/17 09:18:47;;;;;;;0.45;0.45;;;18.30;99.90;;;;;;4983306;28;20239;-88
2022/10/17 09:21:39;;;;;;;0.40;0.40;;;18.30;99.90;;;;;;4977222;28;20485;-85
2022/10/17 09:24:24;;;;;;;0.50;0.50;;;18.30;99.90;;;;;;4995744;28;21225;-85
2022/10/17 09:26:51;;;;;;;0.40;0.40;;;18.30;99.90;;;;;;4991891;28;20076;-84
2022/10/17 09:29:23;;;;;;;0.40;0.40;;;18.40;99.90;;;;;;4967125;28;20492;-86
2022/10/17 09:32:14;;;;;;;0.40;0.40;;;18.40;99.90;;;;;;4994377;28;20493;-87
2022/10/17 09:34:40;;;;;;;0.40;0.40;;;18.40;99.90;;;;;;4996581;28;20047;-87
2022/10/17 09:37:11;;;;;;;0.50;0.50;;;18.40;99.90;;;;;;4983838;28;20052;-83
2022/10/17 09:39:37;;;;;;;0.50;0.50;;;18.50;99.90;;;;;;4977365;28;20601;-82
2022/10/17 09:42:03;;;;;;;0.50;0.50;;;18.50;99.90;;;;;;4974074;28;21535;-82
2022/10/17 09:44:52;;;;;;;0.40;0.40;;;18.50;99.90;;;;;;4996959;28;20052;-85
2022/10/17 09:47:45;;;;;;;0.40;0.40;;;18.60;99.90;;;;;;4989295;28;20126;-88
2022/10/17 09:50:35;;;;;;;0.50;0.50;;;18.60;99.90;;;;;;4972100;28;20564;-84
2022/10/17 09:53:19;;;;;;;0.40;0.40;;;18.70;99.90;;;;;;4985181;28;20048;-88
2022/10/17 09:55:48;;;;;;;0.40;0.40;;;18.60;99.90;;;;;;4973918;28;20468;-85
2022/10/17 09:58:14;;;;;;;0.40;0.40;;;18.40;99.90;;;;;;4981947;28;20813;-88
2022/10/17 10:00:43;;;;;;;0.40;0.40;;;18.30;99.90;;;;;;4988222;28;20040;-87
2022/10/17 10:03:21;;;;;;;0.40;0.40;;;18.20;99.90;;;;;;5002663;28;20501;-86
2022/10/17 10:06:13;;;;;;;0.50;0.50;;;18.10;99.90;;;;;;4989084;28;20475;-88
2022/10/17 10:09:38;;;;;;;0.40;0.40;;;17.90;99.90;;;;;;5005390;28;20044;-91
2022/10/17 10:12:26;;;;;;;0.50;0.50;;;17.80;99.90;;;;;;4927448;28;20451;-91
2022/10/17 10:15:56;;;;;;;0.50;0.50;;;17.70;99.90;;;;;;4914548;28;20042;-91
2022/10/17 10:18:52;;;;;;;0.40;0.40;;;17.60;99.90;;;;;;4926403;28;20976;-91
2022/10/17 10:21:28;;;;;;;0.40;0.40;;;17.50;99.90;;;;;;4901480;28;20634;-91
2022/10/17 10:24:40;;;;;;;0.40;0.40;;;17.50;99.90;;;;;;4929571;28;20839;-90
2022/10/17 10:27:21;;;;;;;0.50;0.50;;;17.50;99.90;;;;;;4932379;28;20372;-92
2022/10/17 10:29:57;;;;;;;0.50;0.50;;;17.50;99.90;;;;;;4927530;28;20096;-92
2022/10/17 10:35:41;;;;;;;0.40;0.40;;;17.40;99.90;;;;;;4958727;27;2180510;-88
2022/10/17 10:38:34;;;;;;;0.40;0.40;;;17.30;99.90;;;;;;5013854;28;20055;-86
2022/10/17 10:41:44;;;;;;;0.40;0.40;;;17.30;99.90;;;;;;5013835;28;20152;-89
2022/10/17 10:44:17;;;;;;;0.50;0.50;;;17.30;99.90;;;;;;5030877;28;20390;-83
2022/10/17 10:47:37;;;;;;;0.50;0.50;;;17.20;99.90;;;;;;5020738;28;20043;-86
2022/10/17 10:50:34;;;;;;;0.47;0.47;;;17.30;99.90;;;;;;4953144;28;20554;-87
2022/10/17 10:53:33;;;;;;;0.40;0.40;;;17.10;99.90;;;;;;4951223;28;20221;-87
2022/10/17 10:56:51;;;;;;;0.40;0.40;;;17.10;99.90;;;;;;4940636;28;20452;-85
2022/10/17 11:00:17;;;;;;;0.40;0.40;;;17.20;99.90;;;;;;4971394;28;20835;-86
2022/10/17 11:07:22;;;;;;;;;;;;;;;;;;;;;
2022/10/17 11:14:37;;;;;;;;;;;;;;;;;;;;;
2022/10/17 11:22:10;;;;;;;0.50;0.50;;;17.40;99.90;;;;;;4853122;29;20429;-90
2022/10/17 11:25:23;;;;;;;0.50;0.50;;;17.50;99.90;;;;;;4827263;29;20218;-92
2022/10/17 11:28:44;;;;;;;0.50;0.50;;;17.30;99.90;;;;;;4778796;29;20062;-92
2022/10/17 11:34:47;;;;;;;0.40;0.40;;;17.30;99.90;;;;;;4915991;28;20081;-91
2022/10/17 11:37:56;;;;;;;0.43;0.43;;;17.50;99.90;;;;;;5011742;28;20075;-93
2022/10/17 11:41:27;;;;;;;;;;;;;;;;;;;;;
2022/10/17 11:53:26;;;;;;;0.40;0.40;;;17.70;99.90;;;;;;4864082;29;20391;-94
2022/10/17 11:56:36;;;;;;;0.50;0.50;;;17.60;99.90;;;;;;4814988;29;20061;-94
2022/10/17 12:18:41;;;;;;;;;;;;;;;;;;;;;
2022/10/17 12:30:19;;;;;;;;;;;;;;;;;;;;;
2022/10/17 12:58:45;;;;;;;0.50;0.50;;;17.50;99.90;;;;;;5052230;27;20402;-88
2022/10/17 13:02:10;;;;;;;;;;;;;;;;;;;;;
2022/10/17 13:06:03;;;;;;;0.50;0.50;;;17.70;99.90;;;;;;4975023;28;20185;-91
2022/10/17 13:15:59;;;;;;;;;;;;;;;;;;;;;
2022/10/17 13:19:46;;;;;;;0.50;0.50;;;17.80;99.90;;;;;;4839720;29;19930;-92
2022/10/17 13:26:06;;;;;;;0.50;0.50;;;17.80;99.90;;;;;;4867599;29;20051;-87
2022/10/17 13:29:28;;;;;;;;;;;;;;;;;;;;;
2022/10/17 13:32:53;;;;;;;0.50;0.50;;;17.90;99.90;;;;;;4843227;29;20060;-96
2022/10/17 13:39:49;;;;;;;0.40;0.40;;;17.80;99.90;;;;;;4769890;29;20363;-94
2022/10/17 13:43:04;;;;;;;0.50;0.50;;;17.90;99.90;;;;;;4853106;29;20529;-96
2022/10/17 14:07:52;;;;;;;0.40;0.40;;;17.70;99.90;;;;;;4736840;29;20055;-90
2022/10/17 14:14:38;;;;;;;0.50;0.50;;;17.70;99.90;;;;;;4709948;29;20405;-87
2022/10/17 14:21:32;;;;;;;0.40;0.40;;;17.80;99.90;;;;;;4744150;29;20043;-92
2022/10/17 14:43:04;;;;;;;0.50;0.50;;;17.60;99.90;;;;;;5052997;27;469723;-79
2022/10/17 14:45:38;;;;;;;0.50;0.50;;;17.40;99.90;;;;;;5082515;27;20050;-84
2022/10/17 14:48:19;;;;;;;0.50;0.50;;;17.20;99.90;;;;;;5052200;27;20308;-85
2022/10/17 14:51:14;;;;;;;0.40;0.40;;;17.00;99.90;;;;;;5062789;27;20042;-84
2022/10/17 14:53:42;;;;;;;0.50;0.50;;;16.90;99.90;;;;;;5065357;27;20433;-85
2022/10/17 14:56:23;;;;;;;0.50;0.50;;;16.80;99.90;;;;;;5051075;27;20425;-84
2022/10/17 14:59:23;;;;;;;0.50;0.50;;;16.80;99.90;;;;;;5041894;27;20407;-85
2022/10/17 15:02:18;;;;;;;0.40;0.40;;;16.60;99.90;;;;;;5056957;27;20522;-85
2022/10/17 15:07:59;;;;;;;0.50;0.50;;;16.50;99.90;;;;;;5060153;27;20106;-85
2022/10/17 15:13:55;;;;;;;0.40;0.40;;;16.50;99.90;;;;;;5051428;27;20050;-85
2022/10/17 15:16:51;;;;;;;0.50;0.50;;;16.40;99.90;;;;;;5051163;27;20073;-87
2022/10/17 15:19:56;;;;;;;;;;;;;;;;;;;;;
2022/10/17 15:22:51;;;;;;;;;;;;;;;;;;;;;
2022/10/17 15:32:50;;;;;;;;;;;;;;;;;;;;;
2022/10/17 15:36:01;;;;;;;0.50;0.50;;;16.50;99.90;;;;;;5065767;27;20048;-89
2022/10/17 15:42:37;;;;;;;0.50;0.50;;;16.50;99.90;;;;;;4960380;28;20148;-88
2022/10/17 15:46:03;;;;;;;;;;;;;;;;;;;;;
2022/10/17 15:49:20;;;;;;;0.43;0.43;;;16.40;99.90;;;;;;4963849;28;20310;-87
2022/10/17 16:00:17;;;;;;;0.40;0.40;;;16.20;99.90;;;;;;4823410;29;20045;-91
2022/10/17 16:03:13;;;;;;;0.50;0.50;;;16.20;99.90;;;;;;4858250;28;20389;-89
2022/10/17 16:06:11;;;;;;;0.50;0.50;;;16.20;99.90;;;;;;4891267;28;20085;-88
2022/10/17 16:09:01;;;;;;;0.40;0.40;;;16.20;99.90;;;;;;4886369;28;20566;-88
2022/10/17 16:11:56;;;;;;;0.50;0.50;;;16.10;99.90;;;;;;4907957;28;20217;-89
2022/10/17 16:17:31;;;;;;;0.50;0.50;;;16.10;99.90;;;;;;4938256;28;20910;-90
2022/10/17 16:20:22;;;;;;;0.40;0.40;;;16.00;99.90;;;;;;4919599;28;20634;-88
2022/10/17 16:26:46;;;;;;;0.40;0.40;;;15.90;99.90;;;;;;4914363;28;20137;-92
2022/10/17 16:29:19;;;;;;;0.50;0.50;;;15.90;99.90;;;;;;4986982;28;20132;-87
2022/10/17 16:32:06;;;;;;;0.50;0.50;;;15.80;99.90;;;;;;4984258;28;20190;-88
2022/10/17 16:38:23;;;;;;;0.50;0.50;;;15.70;99.90;;;;;;5016594;28;20064;-88
2022/10/17 16:40:55;;;;;;;0.50;0.50;;;15.70;99.90;;;;;;5029580;28;20044;-87
2022/10/17 16:44:13;;;;;;;0.50;0.50;;;15.60;99.90;;;;;;5007880;28;20087;-89
2022/10/17 16:46:51;;;;;;;0.40;0.40;;;15.60;99.90;;;;;;4974169;28;20048;-87
2022/10/17 16:49:41;;;;;;;0.47;0.47;;;15.60;99.90;;;;;;4978540;28;20491;-89
2022/10/17 16:52:40;;;;;;;0.50;0.50;;;15.50;99.90;;;;;;4989833;28;20048;-88
2022/10/17 16:58:15;;;;;;;0.50;0.50;;;15.40;99.90;;;;;;5035166;27;20039;-88